Time;durP1;ratioP1;P1;durP2;ratioP2;P2;SDS_P1;SDS_P2;PMS_P1;PMS_P2;Temp;Humidity;BMP_temperature;BMP_pressure;BME280_temperature;BME280_humidity;BME280_pressure;Samples;Min_cycle;Max_cycle;Signal;HPM_P1;HPM_P2
2023/11/21 00:01:51;;;;;;;;;0.00;0.00;;;;;13.17;100.00;101042.63;5096018;27;64304;-84
2023/11/21 00:04:17;;;;;;;;;0.00;0.00;;;;;13.17;100.00;101033.94;5094928;27;45443;-84
2023/11/21 00:06:42;;;;;;;;;0.00;0.00;;;;;13.17;100.00;101036.53;5094734;27;67979;-84
2023/11/21 00:09:08;;;;;;;;;0.00;0.00;;;;;13.21;100.00;101043.38;5094753;27;73041;-84
2023/11/21 00:11:33;;;;;;;;;0.00;0.00;;;;;13.23;100.00;101036.31;5094939;27;45302;-83
2023/11/21 00:13:59;;;;;;;;;0.00;0.00;;;;;13.16;100.00;101040.06;5097106;27;45275;-84
2023/11/21 00:16:25;;;;;;;;;0.00;0.00;;;;;13.13;100.00;101027.97;5096092;27;59893;-84
2023/11/21 00:18:51;;;;;;;;;0.00;0.00;;;;;13.10;100.00;101040.28;5094972;27;47894;-83
2023/11/21 00:21:16;;;;;;;;;0.00;0.00;;;;;13.00;100.00;101034.53;5095462;27;45324;-84
2023/11/21 00:23:41;;;;;;;;;0.00;0.00;;;;;13.01;100.00;101032.75;5095533;27;45444;-84
2023/11/21 00:26:07;;;;;;;;;0.00;0.00;;;;;12.93;100.00;101033.03;5094804;27;54647;-84
2023/11/21 00:28:32;;;;;;;;;0.00;0.00;;;;;12.91;100.00;101043.50;5096409;27;46570;-83
2023/11/21 00:30:57;;;;;;;;;0.00;0.00;;;;;12.91;100.00;101043.50;5095646;27;68260;-83
2023/11/21 00:33:25;;;;;;;;;0.00;0.00;;;;;12.85;100.00;101035.91;5095303;27;69254;-83
2023/11/21 00:35:50;;;;;;;;;0.00;0.00;;;;;12.85;100.00;101037.63;5095453;27;45456;-83
2023/11/21 00:38:15;;;;;;;;;0.00;0.00;;;;;12.77;100.00;101032.66;5095382;27;71262;-83
2023/11/21 00:40:41;;;;;;;;;0.00;0.00;;;;;12.76;100.00;101034.44;5094636;27;62542;-83
2023/11/21 00:43:06;;;;;;;;;0.00;0.00;;;;;12.73;100.00;101028.47;5095854;27;57187;-83
2023/11/21 00:45:31;;;;;;;;;0.00;0.00;;;;;12.61;100.00;101027.13;5095148;27;45737;-83
2023/11/21 00:47:58;;;;;;;;;0.00;0.00;;;;;12.54;100.00;101030.81;5094727;27;46202;-84
2023/11/21 00:50:24;;;;;;;;;0.00;0.00;;;;;12.46;100.00;101028.47;5096181;27;45499;-85
2023/11/21 00:52:51;;;;;;;;;0.00;0.00;;;;;12.44;100.00;101027.63;5096168;27;45525;-84
2023/11/21 00:55:17;;;;;;;;;0.00;0.00;;;;;12.35;100.00;101028.81;5096302;27;45424;-84
2023/11/21 00:57:43;;;;;;;;;0.00;0.00;;;;;12.31;100.00;101024.59;5094687;27;45452;-84
2023/11/21 01:00:16;;;;;;;;;0.00;0.00;;;;;12.30;100.00;101028.09;5095169;27;45389;-84
2023/11/21 01:02:43;;;;;;;;;0.00;0.00;;;;;12.26;100.00;101036.91;5094565;27;45270;-84
2023/11/21 01:05:08;;;;;;;;;0.00;0.00;;;;;12.23;100.00;101047.44;5096244;27;45351;-84
2023/11/21 01:07:34;;;;;;;;;0.00;0.00;;;;;12.19;100.00;101041.47;5094844;27;46994;-84
2023/11/21 01:09:59;;;;;;;;;0.00;0.00;;;;;12.15;100.00;101039.00;5093991;27;73664;-84
2023/11/21 01:12:24;;;;;;;;;0.00;0.00;;;;;12.16;100.00;101038.09;5095274;27;68876;-85
2023/11/21 01:14:50;;;;;;;;;0.00;0.00;;;;;12.16;100.00;101038.09;5094401;27;45455;-84
2023/11/21 01:17:16;;;;;;;;;0.00;0.00;;;;;12.23;100.00;101044.84;5095504;27;45711;-84
2023/11/21 01:19:41;;;;;;;;;0.00;0.00;;;;;12.24;100.00;101049.16;5094670;27;45386;-84
2023/11/21 01:22:07;;;;;;;;;0.00;0.00;;;;;12.25;100.00;101042.19;5094727;27;45406;-85
2023/11/21 01:24:32;;;;;;;;;0.00;0.00;;;;;12.25;100.00;101043.03;5097278;27;67124;-84
2023/11/21 01:26:57;;;;;;;;;0.00;0.00;;;;;12.21;100.00;101049.25;5096886;27;74030;-84
2023/11/21 01:29:23;;;;;;;;;0.00;0.00;;;;;12.29;100.00;101046.41;5098461;27;71381;-85
2023/11/21 01:31:48;;;;;;;;;0.00;0.00;;;;;12.36;100.00;101060.97;5097174;27;55122;-84
2023/11/21 01:34:14;;;;;;;;;0.00;0.00;;;;;12.40;100.00;101058.19;5097961;27;45421;-84
2023/11/21 01:36:39;;;;;;;;;0.00;0.00;;;;;12.42;100.00;101065.16;5097711;27;45547;-84
2023/11/21 01:39:08;;;;;;;;;0.00;0.00;;;;;12.42;100.00;101063.38;5096817;27;73139;-84
2023/11/21 01:41:34;;;;;;;;;0.00;0.00;;;;;12.43;100.00;101065.09;5099022;27;45693;-84
2023/11/21 01:44:00;;;;;;;;;0.00;0.00;;;;;12.48;100.00;101064.94;5097935;27;45446;-85
2023/11/21 01:46:25;;;;;;;;;0.00;0.00;;;;;12.48;100.00;101070.16;5096831;27;55305;-84
2023/11/21 01:48:53;;;;;;;;;0.00;0.00;;;;;12.54;100.00;101065.63;5096943;27;67633;-84
2023/11/21 01:51:18;;;;;;;;;0.00;0.00;;;;;12.52;100.00;101064.81;5099082;27;45253;-85
2023/11/21 01:53:46;;;;;;;;;0.00;0.00;;;;;12.53;100.00;101071.72;5097598;27;45471;-85
2023/11/21 01:56:12;;;;;;;;;0.00;0.00;;;;;12.55;100.00;101075.13;5098072;27;45418;-85
2023/11/21 01:58:37;;;;;;;;;0.00;0.00;;;;;12.54;100.00;101083.03;5097131;27;45366;-84
2023/11/21 02:01:03;;;;;;;;;7.50;7.50;;;;;12.52;100.00;101072.66;5096707;27;67440;-84
2023/11/21 02:03:28;;;;;;;;;0.00;0.00;;;;;12.52;100.00;101084.84;5098921;27;45388;-84
2023/11/21 02:05:54;;;;;;;;;0.00;0.00;;;;;12.45;100.00;101081.56;5098063;27;66999;-84
2023/11/21 02:08:19;;;;;;;;;0.00;0.00;;;;;12.50;100.00;101074.47;5097813;27;68059;-84
2023/11/21 02:10:45;;;;;;;;;0.00;0.00;;;;;12.51;100.00;101073.53;5097903;27;69109;-84
2023/11/21 02:13:11;;;;;;;;;0.00;0.00;;;;;12.45;100.00;101076.34;5096804;27;45527;-84
2023/11/21 02:15:38;;;;;;;;;0.00;0.00;;;;;12.50;100.00;101076.19;5097273;27;46521;-84
2023/11/21 02:18:05;;;;;;;;;0.00;0.00;;;;;12.48;100.00;101078.88;5097361;27;45316;-84
2023/11/21 02:20:34;;;;;;;;;0.00;0.00;;;;;12.46;100.00;101074.59;5098753;27;45335;-84
2023/11/21 02:23:00;;;;;;;;;0.00;0.00;;;;;12.49;100.00;101077.09;5097248;27;45460;-85
2023/11/21 02:25:27;;;;;;;;;0.00;0.00;;;;;12.48;100.00;101080.59;5098291;27;46075;-84
2023/11/21 02:27:54;;;;;;;;;0.00;0.00;;;;;12.50;100.00;101076.19;5096877;27;45432;-84
2023/11/21 02:30:19;;;;;;;;;0.00;0.00;;;;;12.50;100.00;101084.03;5098420;27;45258;-84
2023/11/21 02:32:45;;;;;;;;;0.00;0.00;;;;;12.46;100.00;101083.28;5097527;27;63632;-84
2023/11/21 02:35:12;;;;;;;;;0.00;0.00;;;;;12.44;100.00;101082.47;5096431;27;45449;-84
2023/11/21 02:37:38;;;;;;;;;0.00;0.00;;;;;12.47;100.00;101087.59;5096945;27;45387;-85
2023/11/21 02:40:06;;;;;;;;;0.00;0.00;;;;;12.51;100.00;101090.97;5097136;27;45381;-84
2023/11/21 02:42:31;;;;;;;;;0.00;0.00;;;;;12.48;100.00;101091.94;5097899;27;45468;-84
2023/11/21 02:44:56;;;;;;;;;0.00;0.00;;;;;12.56;100.00;101083.84;5096987;27;75757;-85
2023/11/21 02:47:22;;;;;;;;;0.00;0.00;;;;;12.51;100.00;101091.81;5097974;27;45424;-84
2023/11/21 02:49:47;;;;;;;;;0.00;0.00;;;;;12.57;100.00;101091.63;5097046;27;45385;-84
2023/11/21 02:52:13;;;;;;;;;0.00;0.00;;;;;12.64;100.00;101094.06;5096147;27;58898;-84
2023/11/21 02:54:38;;;;;;;;;0.00;0.00;;;;;12.65;100.00;101091.41;5096766;27;75467;-84
2023/11/21 02:57:04;;;;;;;;;0.00;0.00;;;;;12.58;100.00;101093.34;5097283;27;45452;-84
2023/11/21 02:59:29;;;;;;;;;0.00;0.00;;;;;12.61;100.00;101086.31;5096594;27;45408;-84
2023/11/21 03:01:56;;;;;;;;;0.00;0.00;;;;;12.59;100.00;101087.22;5079358;27;45466;-84
2023/11/21 03:04:22;;;;;;;;;0.00;0.00;;;;;12.61;100.00;101089.78;5097476;27;46579;-82
2023/11/21 03:06:47;;;;;;;;;0.00;0.00;;;;;12.65;100.00;101093.13;5095647;27;66729;-83
2023/11/21 03:09:12;;;;;;;;;0.00;0.00;;;;;12.64;100.00;101081.00;5096687;27;68869;-84
2023/11/21 03:11:38;;;;;;;;;0.00;0.00;;;;;12.68;100.00;101087.81;5097384;27;45413;-84
2023/11/21 03:14:05;;;;;;;;;0.00;0.00;;;;;12.68;100.00;101093.03;5096480;27;46091;-84
2023/11/21 03:16:31;;;;;;;;;0.00;0.00;;;;;12.64;100.00;101081.84;5097354;27;45360;-85
2023/11/21 03:18:56;;;;;;;;;0.00;0.00;;;;;12.66;100.00;101080.03;5097746;27;45370;-84
2023/11/21 03:21:21;;;;;;;;;0.00;0.00;;;;;12.65;100.00;101085.28;5095454;27;69679;-84
2023/11/21 03:23:47;;;;;;;;;0.00;0.00;;;;;12.61;100.00;101092.41;5095925;27;57107;-84
2023/11/21 03:26:12;;;;;;;;;0.00;0.00;;;;;12.59;100.00;101088.94;5095443;27;51468;-84
2023/11/21 03:28:38;;;;;;;;;0.00;0.00;;;;;12.61;100.00;101094.13;5096223;27;45407;-84
2023/11/21 03:31:03;;;;;;;;;0.00;0.00;;;;;12.65;100.00;101100.97;5096295;27;45248;-84
2023/11/21 03:33:29;;;;;;;;;0.00;0.00;;;;;12.60;100.00;101101.13;5096122;27;47121;-84
2023/11/21 03:35:54;;;;;;;;;0.00;0.00;;;;;12.63;100.00;101101.03;5096839;27;60613;-84
2023/11/21 03:38:20;;;;;;;;;0.00;0.00;;;;;12.63;100.00;101098.44;5097234;27;45414;-84
2023/11/21 03:40:45;;;;;;;;;0.00;0.00;;;;;12.61;100.00;101100.25;5097014;27;45300;-84
2023/11/21 03:43:10;;;;;;;;;0.00;0.00;;;;;12.62;100.00;101099.31;5095802;27;45579;-84
2023/11/21 03:45:36;;;;;;;;;0.00;0.00;;;;;12.63;100.00;101098.44;5094678;27;46354;-84
2023/11/21 03:48:01;;;;;;;;;0.00;0.00;;;;;12.65;100.00;101107.06;5096733;27;55251;-84
2023/11/21 03:50:31;;;;;;;;;0.00;0.00;;;;;12.67;100.00;101104.41;5096110;27;45368;-84
2023/11/21 03:52:56;;;;;;;;;0.00;0.00;;;;;12.58;100.00;101102.94;5097686;27;45444;-84
2023/11/21 03:55:23;;;;;;;;;4.00;4.00;;;;;12.50;100.00;101110.13;5095636;27;72163;-84
2023/11/21 03:57:48;;;;;;;;;0.00;0.00;;;;;12.47;100.00;101105.88;5097127;27;45359;-84
2023/11/21 04:00:14;;;;;;;;;0.00;0.00;;;;;12.52;100.00;101103.13;5095939;27;68641;-84
2023/11/21 04:02:40;;;;;;;;;0.00;0.00;;;;;12.53;100.00;101113.50;5096326;27;47284;-84
2023/11/21 04:05:07;;;;;;;;;0.00;0.00;;;;;12.49;100.00;101114.50;5095577;27;45410;-84
2023/11/21 04:07:32;;;;;;;;;0.00;0.00;;;;;12.50;100.00;101111.00;5096795;27;45369;-85
2023/11/21 04:09:57;;;;;;;;;0.00;0.00;;;;;12.43;100.00;101113.84;5095284;27;45476;-85
2023/11/21 04:12:23;;;;;;;;;0.00;0.00;;;;;12.42;100.00;101130.41;5095705;27;74495;-85
2023/11/21 04:14:48;;;;;;;;;0.00;0.00;;;;;12.39;100.00;101124.38;5095856;27;68975;-85
2023/11/21 04:17:13;;;;;;;;;0.00;0.00;;;;;12.67;100.00;101126.16;5095610;27;69213;-85
2023/11/21 04:19:39;;;;;;;;;0.00;0.00;;;;;12.59;100.00;101133.34;5094501;27;64379;-84
2023/11/21 04:22:04;;;;;;;;;0.00;0.00;;;;;12.51;100.00;101141.41;5096605;27;45512;-85
2023/11/21 04:24:29;;;;;;;;;0.00;0.00;;;;;12.68;100.00;101134.81;5094155;27;69494;-85
2023/11/21 04:26:55;;;;;;;;;0.00;0.00;;;;;12.71;100.00;101140.81;5095868;27;63619;-84
2023/11/21 04:29:20;;;;;;;;;0.00;0.00;;;;;12.70;100.00;101128.69;5096423;27;52697;-84
2023/11/21 04:31:48;;;;;;;;;0.00;0.00;;;;;12.67;100.00;101123.53;5095426;27;77194;-85
2023/11/21 04:34:14;;;;;;;;;0.00;0.00;;;;;12.61;100.00;101130.69;5078537;27;45251;-85
2023/11/21 04:36:40;;;;;;;;;0.00;0.00;;;;;12.54;100.00;101124.81;5094636;27;68607;-85
2023/11/21 04:39:06;;;;;;;;;0.00;0.00;;;;;12.50;100.00;101138.84;5094953;27;45397;-84
2023/11/21 04:41:31;;;;;;;;;0.00;0.00;;;;;12.50;100.00;101144.06;5095320;27;46168;-85
2023/11/21 04:43:57;;;;;;;;;0.00;0.00;;;;;12.46;100.00;101145.06;5096397;27;45416;-85
2023/11/21 04:46:23;;;;;;;;;0.00;0.00;;;;;12.44;100.00;101141.66;5096416;27;45357;-85
2023/11/21 04:48:49;;;;;;;;;0.00;0.00;;;;;12.42;100.00;101144.31;5096069;27;60178;-85
2023/11/21 04:51:14;;;;;;;;;0.00;0.00;;;;;12.44;100.00;101142.50;5096201;27;46037;-85
2023/11/21 04:53:39;;;;;;;;;0.00;0.00;;;;;12.22;100.00;101146.66;5094046;27;65639;-86
2023/11/21 04:56:05;;;;;;;;;0.00;0.00;;;;;12.26;100.00;101143.06;5096471;27;45654;-85
2023/11/21 04:58:31;;;;;;;;;0.00;0.00;;;;;12.45;100.00;101146.00;5099814;27;45529;-85
2023/11/21 05:00:57;;;;;;;;;0.00;0.00;;;;;12.52;100.00;101143.16;5099930;27;46200;-86
2023/11/21 05:03:23;;;;;;;;;0.00;0.00;;;;;12.55;100.00;101144.78;5111543;27;45508;-85
2023/11/21 05:05:49;;;;;;;;;0.00;0.00;;;;;12.57;100.00;101143.00;5120530;27;45408;-86
2023/11/21 05:08:14;;;;;;;;;0.00;0.00;;;;;12.54;100.00;101149.19;5117939;27;66887;-87
2023/11/21 05:10:39;;;;;;;;;0.00;0.00;;;;;12.57;100.00;101145.59;5120135;27;45954;-85
2023/11/21 05:13:09;;;;;;;;;0.00;0.00;;;;;12.58;100.00;101149.94;5119358;27;45510;-86
2023/11/21 05:15:35;;;;;;;;;0.00;0.00;;;;;12.59;100.00;101151.63;5119226;27;45349;-85
2023/11/21 05:18:00;;;;;;;;;0.00;0.00;;;;;12.63;100.00;101155.88;5119310;27;70127;-85
2023/11/21 05:20:25;;;;;;;;;0.00;0.00;;;;;12.71;100.00;101160.88;5118084;27;70378;-85
2023/11/21 05:22:51;;;;;;;;;0.00;0.00;;;;;12.74;100.00;101166.84;5119258;27;62460;-85
2023/11/21 05:25:19;;;;;;;;;0.00;0.00;;;;;12.75;100.00;101165.94;5120139;27;45249;-85
2023/11/21 05:27:45;;;;;;;;;0.00;0.00;;;;;12.72;100.00;101168.66;5120205;27;45594;-85
2023/11/21 05:30:12;;;;;;;;;0.00;0.00;;;;;12.76;100.00;101169.41;5118893;27;46375;-86
2023/11/21 05:32:38;;;;;;;;;0.00;0.00;;;;;12.78;100.00;101165.00;5120231;27;45341;-86
2023/11/21 05:35:09;;;;;;;;;0.00;0.00;;;;;12.74;100.00;101169.47;5118848;27;45334;-86
2023/11/21 05:37:34;;;;;;;;;0.00;0.00;;;;;12.79;100.00;101177.97;5118556;27;45519;-86
2023/11/21 05:40:04;;;;;;;;;0.00;0.00;;;;;12.83;100.00;101173.53;5120493;27;46494;-86
2023/11/21 05:42:30;;;;;;;;;0.00;0.00;;;;;12.87;100.00;101176.91;5120076;27;45387;-86
2023/11/21 05:44:59;;;;;;;;;0.00;0.00;;;;;12.94;100.00;101188.88;5120217;27;45354;-86
2023/11/21 05:47:26;;;;;;;;;0.00;0.00;;;;;12.93;100.00;101181.94;5105859;27;45310;-86
2023/11/21 05:49:51;;;;;;;;;0.00;0.00;;;;;12.91;100.00;101178.53;5098479;27;46983;-86
2023/11/21 05:52:20;;;;;;;;;0.00;0.00;;;;;12.77;100.00;101187.63;5097411;27;45364;-86
2023/11/21 05:54:45;;;;;;;;;0.00;0.00;;;;;12.95;100.00;101185.38;5098082;27;45550;-86
2023/11/21 05:57:11;;;;;;;;;0.00;0.00;;;;;12.98;100.00;101180.91;5099168;27;45366;-85
2023/11/21 05:59:36;;;;;;;;;0.00;0.00;;;;;13.05;100.00;101185.91;5097531;27;47999;-86
2023/11/21 06:02:02;;;;;;;;;0.00;0.00;;;;;13.26;100.00;101197.44;5098867;27;45346;-85
2023/11/21 06:04:27;;;;;;;;;0.00;0.00;;;;;13.10;100.00;101190.09;5119944;27;45482;-85
2023/11/21 06:06:53;;;;;;;;;0.00;0.00;;;;;13.09;100.00;101196.25;5118024;27;48480;-85
2023/11/21 06:09:19;;;;;;;;;0.00;0.00;;;;;13.10;100.00;101197.09;5117350;27;45361;-85
2023/11/21 06:11:44;;;;;;;;;0.00;0.00;;;;;13.12;100.00;101206.56;5118007;27;45454;-85
2023/11/21 06:14:10;;;;;;;;;0.00;0.00;;;;;13.17;100.00;101203.84;5117024;27;68494;-85
2023/11/21 06:16:36;;;;;;;;;0.00;0.00;;;;;13.19;100.00;101209.88;5100904;27;45637;-85
2023/11/21 06:19:01;;;;;;;;;0.00;0.00;;;;;13.18;100.00;101205.53;5116999;27;73814;-85
2023/11/21 06:21:26;;;;;;;;;0.00;0.00;;;;;13.20;100.00;101205.47;5117840;27;45488;-84
2023/11/21 06:23:52;;;;;;;;;0.00;0.00;;;;;13.21;100.00;101210.66;5117620;27;68420;-85
2023/11/21 06:26:18;;;;;;;;;0.00;0.00;;;;;13.23;100.00;101208.84;5117825;27;45400;-84
2023/11/21 06:28:44;;;;;;;;;0.00;0.00;;;;;13.22;100.00;101211.50;5117972;27;46096;-84
2023/11/21 06:31:10;;;;;;;;;0.00;0.00;;;;;13.24;100.00;101214.94;5118992;27;45463;-85
2023/11/21 06:33:35;;;;;;;;;0.00;0.00;;;;;13.26;100.00;101221.84;5118107;27;45474;-84
2023/11/21 06:36:04;;;;;;;;;0.00;0.00;;;;;13.26;100.00;101218.34;5118039;27;63050;-85
2023/11/21 06:38:30;;;;;;;;;0.00;0.00;;;;;13.28;100.00;101222.63;5117534;27;46205;-85
2023/11/21 06:40:58;;;;;;;;;0.00;0.00;;;;;13.26;100.00;101218.34;5117817;27;45314;-84
2023/11/21 06:43:24;;;;;;;;;0.00;0.00;;;;;13.27;100.00;101226.13;5117635;27;45380;-85
2023/11/21 06:45:49;;;;;;;;;0.00;0.00;;;;;13.26;100.00;101224.44;5115859;27;45350;-83
2023/11/21 06:48:14;;;;;;;;;0.00;0.00;;;;;13.26;100.00;101218.34;5097639;27;62202;-83
2023/11/21 06:50:40;;;;;;;;;0.00;0.00;;;;;13.26;100.00;101224.44;5097551;27;45317;-84
2023/11/21 06:53:07;;;;;;;;;0.00;0.00;;;;;13.26;100.00;101218.34;5096896;27;45326;-84
2023/11/21 06:55:32;;;;;;;;;0.00;0.00;;;;;13.23;100.00;101229.75;5096758;27;45544;-84
2023/11/21 06:57:59;;;;;;;;;0.00;0.00;;;;;13.23;100.00;101228.91;5096072;27;60658;-84
2023/11/21 07:00:25;;;;;;;;;0.00;0.00;;;;;13.24;100.00;101231.50;5097881;27;45467;-84
2023/11/21 07:02:50;;;;;;;;;0.00;0.00;;;;;13.24;100.00;101230.63;5097580;27;45353;-84
2023/11/21 07:05:20;;;;;;;;;0.00;0.00;;;;;13.27;100.00;101238.38;5096458;27;69348;-84
2023/11/21 07:07:45;;;;;;;;;0.00;0.00;;;;;13.27;100.00;101246.22;5096302;27;47182;-84
2023/11/21 07:10:11;;;;;;;;;0.00;0.00;;;;;13.28;100.00;101245.28;5079513;27;45674;-84
2023/11/21 07:12:36;;;;;;;;;0.00;0.00;;;;;13.25;100.00;101253.25;5096790;27;69157;-84
2023/11/21 07:15:03;;;;;;;;;0.00;0.00;;;;;13.26;100.00;101255.81;5096370;27;45406;-83
2023/11/21 07:17:31;;;;;;;;;0.00;0.00;;;;;13.27;100.00;101267.13;5097510;27;47266;-84
2023/11/21 07:19:56;;;;;;;;;0.00;0.00;;;;;13.28;100.00;101263.59;5094976;27;45272;-84
2023/11/21 07:22:22;;;;;;;;;0.00;0.00;;;;;13.28;100.00;101268.81;5096331;27;45344;-84
2023/11/21 07:24:50;;;;;;;;;0.50;0.50;;;;;13.26;100.00;101273.25;5096598;27;45360;-84
2023/11/21 07:27:16;;;;;;;;;0.00;0.00;;;;;13.28;100.00;101277.53;5097352;27;46278;-85
2023/11/21 07:29:41;;;;;;;;;0.00;0.00;;;;;13.30;100.00;101281.00;5096716;27;45445;-84
2023/11/21 07:32:09;;;;;;;;;0.00;0.00;;;;;13.32;100.00;101287.03;5101097;27;45375;-84
2023/11/21 07:34:34;;;;;;;;;0.00;0.00;;;;;13.34;100.00;101285.22;5102041;27;45389;-86
2023/11/21 07:36:59;;;;;;;;;0.00;0.00;;;;;13.37;100.00;101286.84;5096886;27;75570;-83
2023/11/21 07:39:25;;;;;;;;;0.00;0.00;;;;;13.38;100.00;101283.34;5097572;27;45434;-86
2023/11/21 07:41:50;;;;;;;;;0.00;0.00;;;;;13.42;100.00;101292.81;5096492;27;45383;-83
2023/11/21 07:44:19;;;;;;;;;0.00;0.00;;;;;13.41;100.00;101288.50;5096147;27;45293;-84
2023/11/21 07:46:45;;;;;;;;;0.00;0.00;;;;;13.45;100.00;101300.56;5096734;27;46171;-84
2023/11/21 07:49:10;;;;;;;;;0.00;0.00;;;;;13.45;100.00;101292.72;5096546;27;45511;-84
2023/11/21 07:51:36;;;;;;;;;0.00;0.00;;;;;13.47;100.00;101306.59;5097146;27;45299;-84
2023/11/21 07:54:01;;;;;;;;;0.00;0.00;;;;;13.50;100.00;101305.63;5111680;27;69441;-84
2023/11/21 07:56:27;;;;;;;;;0.00;0.00;;;;;13.48;100.00;101307.44;5075570;27;73025;-84
2023/11/21 07:58:52;;;;;;;;;0.00;0.00;;;;;13.53;100.00;101309.00;5092856;27;45359;-84
2023/11/21 08:01:30;;;;;;;;;;;;;;;;;;;;;
2023/11/21 08:04:06;;;;;;;;;;;;;;;;;;;;;
2023/11/21 08:06:42;;;;;;;;;;;;;;;;;;;;;
2023/11/21 08:09:10;;;;;;;;;0.00;0.00;;;;;13.50;100.00;101313.47;5095384;27;73021;-86
2023/11/21 08:11:44;;;;;;;;;0.00;0.00;;;;;13.43;100.00;101320.69;5097528;27;45338;-87
2023/11/21 08:14:19;;;;;;;;;0.00;0.00;;;;;13.53;100.00;101323.84;5097746;27;45317;-87
2023/11/21 08:17:02;;;;;;;;;;;;;;;;;;;;;
2023/11/21 08:19:28;;;;;;;;;0.00;0.00;;;;;13.61;100.00;101334.91;5094701;27;72687;-83
2023/11/21 08:21:59;;;;;;;;;0.75;0.75;;;;;13.55;100.00;101333.34;5096854;27;45935;-83
2023/11/21 08:24:24;;;;;;;;;4.00;4.00;;;;;13.54;100.00;101331.66;5096940;27;45374;-87
2023/11/21 08:26:50;;;;;;;;;0.00;0.00;;;;;13.53;100.00;101331.69;5096057;27;45984;-84
2023/11/21 08:29:18;;;;;;;;;0.00;0.00;;;;;13.48;100.00;101339.72;5096649;27;45300;-85
2023/11/21 08:31:46;;;;;;;;;0.00;0.00;;;;;13.53;100.00;101340.41;5095372;27;45436;-85
2023/11/21 08:34:12;;;;;;;;;0.00;0.00;;;;;13.60;100.00;101338.44;5099089;27;45402;-87
2023/11/21 08:36:52;;;;;;;;;;;;;;;;;;;;;
2023/11/21 08:39:24;;;;;;;;;0.00;0.00;;;;;13.75;100.00;101343.19;5096771;27;72281;-88
2023/11/21 08:41:50;;;;;;;;;1.50;1.50;;;;;13.80;100.00;101348.28;5093587;27;45912;-87
2023/11/21 08:44:18;;;;;;;;;0.00;0.00;;;;;13.94;100.00;101340.81;5097049;27;45572;-84
2023/11/21 08:46:46;;;;;;;;;0.75;0.75;;;;;14.01;100.00;101344.09;5137014;27;45821;-85
2023/11/21 08:49:15;;;;;;;;;0.00;0.00;;;;;14.15;100.00;101356.69;5094570;27;45500;-85
2023/11/21 08:51:41;;;;;;;;;0.00;0.00;;;;;14.23;100.00;101361.69;5099810;27;45316;-88
2023/11/21 08:54:08;;;;;;;;;0.00;0.00;;;;;14.25;100.00;101368.56;5116431;27;45428;-92
2023/11/21 08:57:05;;;;;;;;;;;;;;;;;;;;;
2023/11/21 08:59:42;;;;;;;;;0.00;0.00;;;;;14.16;100.00;101381.13;5098691;27;73443;-92
2023/11/21 09:02:41;;;;;;;;;;;;;;;;;;;;;
2023/11/21 09:05:26;;;;;;;;;;;;;;;;;;;;;
2023/11/21 09:08:14;;;;;;;;;0.00;0.00;;;;;14.17;100.00;101372.34;5083983;27;74078;-89
2023/11/21 09:10:50;;;;;;;;;;;;;;;;;;;;;
2023/11/21 09:13:16;;;;;;;;;0.00;0.00;;;;;14.23;100.00;101388.72;5117434;27;68320;-82
2023/11/21 09:15:46;;;;;;;;;0.00;0.00;;;;;14.22;100.00;101387.00;5114387;27;45516;-82
2023/11/21 09:18:15;;;;;;;;;0.00;0.00;;;;;14.21;100.00;101390.53;5109795;27;46091;-84
2023/11/21 09:20:43;;;;;;;;;0.00;0.00;;;;;14.17;100.00;101385.44;5125438;27;45358;-84
2023/11/21 09:23:09;;;;;;;;;0.00;0.00;;;;;14.22;100.00;101387.00;5106081;27;45323;-84
2023/11/21 09:25:36;;;;;;;;;0.00;0.00;;;;;14.29;100.00;101387.66;5086556;27;45509;-85
2023/11/21 09:28:04;;;;;;;;;0.00;0.00;;;;;14.31;100.00;101380.59;5102117;27;45710;-86
2023/11/21 09:30:33;;;;;;;;;0.00;0.00;;;;;14.40;100.00;101384.69;5102470;27;45421;-85
2023/11/21 09:32:58;;;;;;;;;0.00;0.00;;;;;14.55;100.00;101389.38;5113611;27;45456;-83
2023/11/21 09:35:31;;;;;;;;;0.00;0.00;;;;;14.64;100.00;101401.34;5099604;27;45446;-86
2023/11/21 09:38:04;;;;;;;;;0.00;0.00;;;;;14.74;100.00;101391.38;5103049;27;45446;-87
2023/11/21 09:40:33;;;;;;;;;0.00;0.00;;;;;14.95;100.00;101408.97;5105716;27;45864;-87
2023/11/21 09:43:01;;;;;;;;;0.00;0.00;;;;;14.98;100.00;101406.22;5117574;27;45308;-87
2023/11/21 09:45:31;;;;;;;;;0.00;0.00;;;;;14.93;100.00;101405.50;5116724;27;45172;-86
2023/11/21 09:47:56;;;;;;;;;0.00;0.00;;;;;14.92;100.00;101410.84;5103317;27;46947;-83
2023/11/21 09:50:23;;;;;;;;;0.00;0.00;;;;;14.92;100.00;101416.09;5112096;27;45525;-83
2023/11/21 09:53:14;;;;;;;;;0.00;0.00;;;;;14.86;100.00;101418.00;5111774;27;45399;-84
2023/11/21 09:55:43;;;;;;;;;0.00;0.00;;;;;14.82;100.00;101418.16;5096780;27;45541;-84
2023/11/21 09:58:12;;;;;;;;;0.00;0.00;;;;;14.82;100.00;101423.41;5098935;27;46299;-83
2023/11/21 10:00:43;;;;;;;;;0.00;0.00;;;;;14.94;100.00;101432.59;5114842;27;45399;-84
2023/11/21 10:03:09;;;;;;;;;0.00;0.00;;;;;14.91;100.00;101441.41;5114868;27;45527;-84
2023/11/21 10:05:36;;;;;;;;;0.00;0.00;;;;;14.82;100.00;101444.38;5104363;27;45440;-84
2023/11/21 10:08:01;;;;;;;;;0.00;0.00;;;;;14.77;100.00;101443.69;5131395;27;46324;-84
2023/11/21 10:10:28;;;;;;;;;0.00;0.00;;;;;14.88;100.00;101449.41;5115881;27;45554;-84
2023/11/21 10:12:56;;;;;;;;;0.00;0.00;;;;;14.91;100.00;101457.16;5112644;27;45373;-82
2023/11/21 10:15:25;;;;;;;;;0.00;0.00;;;;;14.96;100.00;101468.31;5078812;27;45373;-80
2023/11/21 10:17:53;;;;;;;;;0.00;0.00;;;;;15.02;100.00;101467.25;5098559;27;45349;-82
2023/11/21 10:20:19;;;;;;;;;0.00;0.00;;;;;15.03;100.00;101476.84;5126146;27;45596;-81
2023/11/21 10:22:45;;;;;;;;;0.00;0.00;;;;;14.95;100.00;101469.25;5108647;27;45697;-83
2023/11/21 10:25:14;;;;;;;;;0.00;0.00;;;;;14.99;100.00;101480.47;5099019;27;45427;-81
2023/11/21 10:27:40;;;;;;;;;0.00;0.00;;;;;14.96;100.00;101484.06;5102065;27;46436;-82
2023/11/21 10:30:08;;;;;;;;;0.00;0.00;;;;;15.01;100.00;101478.66;5143081;27;45391;-82
2023/11/21 10:32:33;;;;;;;;;0.00;0.00;;;;;14.95;100.00;101484.97;5133129;27;45497;-82
2023/11/21 10:35:00;;;;;;;;;0.00;0.00;;;;;14.93;100.00;101475.44;5110347;27;45343;-82
2023/11/21 10:37:27;;;;;;;;;0.00;0.00;;;;;14.92;100.00;101477.22;5097651;27;45821;-81
2023/11/21 10:39:58;;;;;;;;;0.00;0.00;;;;;14.96;100.00;101478.81;5097395;27;45376;-83
2023/11/21 10:42:24;;;;;;;;;0.00;0.00;;;;;14.99;100.00;101478.72;5096785;27;45288;-82
2023/11/21 10:44:50;;;;;;;;;0.00;0.00;;;;;15.06;100.00;101482.84;5086110;27;45676;-82
2023/11/21 10:47:15;;;;;;;;;0.00;0.00;;;;;15.03;100.00;101480.31;5089119;27;45501;-83
2023/11/21 10:49:42;;;;;;;;;1.00;1.00;;;;;15.02;100.00;101488.22;5089154;27;45438;-83
2023/11/21 10:52:07;;;;;;;;;0.00;0.00;;;;;14.94;100.00;101488.50;5105443;27;45399;-83
2023/11/21 10:54:33;;;;;;;;;0.00;0.00;;;;;14.93;100.00;101494.63;5113027;27;57868;-81
2023/11/21 10:57:00;;;;;;;;;0.00;0.00;;;;;14.92;100.00;101492.09;5097648;27;46067;-83
2023/11/21 10:59:28;;;;;;;;;0.00;0.00;;;;;14.94;100.00;101495.53;5097921;27;45402;-83
2023/11/21 11:01:59;;;;;;;;;0.00;0.00;;;;;14.93;100.00;101499.88;5109655;27;45666;-83
2023/11/21 11:04:27;;;;;;;;;0.00;0.00;;;;;14.92;100.00;101492.94;5097964;27;45345;-83
2023/11/21 11:06:58;;;;;;;;;0.00;0.00;;;;;14.99;100.00;101493.56;5100112;27;47196;-83
2023/11/21 11:09:26;;;;;;;;;0.75;0.75;;;;;15.03;100.00;101493.41;5118316;27;45421;-86
2023/11/21 11:11:52;;;;;;;;;0.00;0.00;;;;;15.04;100.00;101491.66;5095111;27;45910;-84
2023/11/21 11:14:19;;;;;;;;;0.00;0.00;;;;;15.11;100.00;101498.38;5092205;27;45515;-84
2023/11/21 11:16:45;;;;;;;;;0.00;0.00;;;;;15.17;100.00;101492.91;5088346;27;45800;-85
2023/11/21 11:19:10;;;;;;;;;0.00;0.00;;;;;15.24;100.00;101494.41;5096210;27;45325;-84
2023/11/21 11:21:46;;;;;;;;;0.00;0.00;;;;;15.31;100.00;101496.81;5095890;27;45380;-83
2023/11/21 11:24:36;;;;;;;;;0.00;0.00;;;;;15.40;100.00;101502.59;5092900;27;45492;-84
2023/11/21 11:27:16;;;;;;;;;1.00;1.00;;;;;15.46;100.00;101506.75;5097577;27;48223;-94
2023/11/21 11:30:03;;;;;;;;;0.00;0.00;;;;;15.44;100.00;101501.53;5098938;27;45357;-95